Time;durP1;ratioP1;P1;durP2;ratioP2;P2;SDS_P1;SDS_P2;PMS_P1;PMS_P2;Temp;Humidity;BMP_temperature;BMP_pressure;BME280_temperature;BME280_humidity;BME280_pressure;Samples;Min_cycle;Max_cycle;Signal;HPM_P1;HPM_P2
2022/05/11 00:01:47;;;;;;;3.03;2.10;;;16.70;99.90;;;;;;4973638;28;20207;-85
2022/05/11 00:04:16;;;;;;;3.63;2.30;;;16.60;99.90;;;;;;4981540;28;20230;-86
2022/05/11 00:06:43;;;;;;;3.17;2.10;;;16.70;99.90;;;;;;4988870;28;20256;-84
2022/05/11 00:09:13;;;;;;;4.70;2.53;;;16.60;99.90;;;;;;5000568;28;20281;-84
2022/05/11 00:11:40;;;;;;;6.00;2.40;;;16.70;99.90;;;;;;5000282;28;20203;-84
2022/05/11 00:14:07;;;;;;;4.23;2.53;;;16.70;99.90;;;;;;4990236;28;20222;-85
2022/05/11 00:16:35;;;;;;;5.67;2.83;;;16.70;99.90;;;;;;4991062;28;20233;-83
2022/05/11 00:19:02;;;;;;;6.13;2.80;;;16.70;99.90;;;;;;4987146;28;20231;-84
2022/05/11 00:21:30;;;;;;;5.27;2.57;;;16.60;99.90;;;;;;4987587;28;20211;-85
2022/05/11 00:23:57;;;;;;;5.00;2.47;;;16.60;99.90;;;;;;4974883;28;20261;-84
2022/05/11 00:26:24;;;;;;;5.67;3.07;;;16.60;99.90;;;;;;4976177;28;20207;-85
2022/05/11 00:28:51;;;;;;;5.43;2.83;;;16.50;99.90;;;;;;4989632;28;20219;-85
2022/05/11 00:31:18;;;;;;;5.67;3.10;;;16.60;99.90;;;;;;4993392;28;20214;-85
2022/05/11 00:33:45;;;;;;;4.57;3.20;;;16.50;99.90;;;;;;4993363;28;20297;-85
2022/05/11 00:36:14;;;;;;;4.93;3.07;;;16.50;99.90;;;;;;4991584;28;20218;-85
2022/05/11 00:38:41;;;;;;;5.00;2.97;;;16.50;99.90;;;;;;4973467;28;20330;-84
2022/05/11 00:41:08;;;;;;;5.77;3.30;;;16.60;99.90;;;;;;4993975;28;20266;-86
2022/05/11 00:43:41;;;;;;;4.60;3.00;;;16.50;99.90;;;;;;4992620;28;20222;-84
2022/05/11 00:46:16;;;;;;;4.77;3.33;;;16.50;99.90;;;;;;4976436;28;20718;-84
2022/05/11 00:51:39;;;;;;;7.43;3.50;;;16.50;99.90;;;;;;4993981;28;20234;-83
2022/05/11 00:54:06;;;;;;;5.73;2.97;;;16.50;99.90;;;;;;4974150;28;20214;-84
2022/05/11 00:56:37;;;;;;;5.67;3.10;;;16.60;99.90;;;;;;4994981;28;20207;-84
2022/05/11 00:59:12;;;;;;;6.63;3.50;;;16.60;99.90;;;;;;4993629;28;20211;-84
2022/05/11 01:01:41;;;;;;;6.53;3.43;;;16.60;99.90;;;;;;4992504;28;20211;-85
2022/05/11 01:04:12;;;;;;;6.47;3.17;;;16.60;99.90;;;;;;4974606;28;20223;-84
2022/05/11 01:06:43;;;;;;;6.43;3.20;;;16.60;99.90;;;;;;4992296;28;20461;-85
2022/05/11 01:09:12;;;;;;;4.90;2.67;;;16.60;99.90;;;;;;4990854;28;20204;-85
2022/05/11 01:11:53;;;;;;;7.00;3.07;;;16.50;99.90;;;;;;4969837;28;20222;-85
2022/05/11 01:14:24;;;;;;;4.77;2.90;;;16.50;99.90;;;;;;4990506;28;20559;-84
2022/05/11 01:16:51;;;;;;;8.23;3.10;;;16.50;99.90;;;;;;4974546;28;20214;-84
2022/05/11 01:19:28;;;;;;;4.63;2.80;;;16.50;99.90;;;;;;4991623;28;20215;-84
2022/05/11 01:22:06;;;;;;;4.07;2.70;;;16.60;99.90;;;;;;4984853;28;20219;-84
2022/05/11 01:24:39;;;;;;;6.23;2.80;;;16.50;99.90;;;;;;4990362;28;20621;-85
2022/05/11 01:27:29;;;;;;;5.07;3.33;;;16.50;99.90;;;;;;4974888;28;20238;-84
2022/05/11 01:30:04;;;;;;;4.13;2.80;;;16.50;99.90;;;;;;4990508;28;20204;-85
2022/05/11 01:32:31;;;;;;;4.83;3.00;;;16.50;99.90;;;;;;4973722;28;20511;-85
2022/05/11 01:35:04;;;;;;;5.90;3.20;;;16.50;99.90;;;;;;4991376;28;20242;-84
2022/05/11 01:37:36;;;;;;;5.93;3.33;;;16.50;99.90;;;;;;4990745;28;20219;-84
2022/05/11 01:40:04;;;;;;;6.83;3.70;;;16.50;99.90;;;;;;4974585;28;20202;-84
2022/05/11 01:42:31;;;;;;;6.17;3.30;;;16.60;99.90;;;;;;4971727;28;20292;-85
2022/05/11 01:44:58;;;;;;;5.13;3.40;;;16.50;99.90;;;;;;4976350;28;20207;-85
2022/05/11 01:47:25;;;;;;;4.63;3.40;;;16.40;99.90;;;;;;4974511;28;20844;-84
2022/05/11 01:49:52;;;;;;;7.10;4.40;;;16.50;99.90;;;;;;4991970;28;20250;-83
2022/05/11 01:52:19;;;;;;;7.90;3.90;;;16.50;99.90;;;;;;4993198;28;20191;-84
2022/05/11 01:54:47;;;;;;;5.00;3.47;;;16.50;99.90;;;;;;4977476;28;20203;-86
2022/05/11 01:57:14;;;;;;;6.27;4.00;;;16.50;99.90;;;;;;4975136;28;20207;-83
2022/05/11 01:59:41;;;;;;;6.90;3.83;;;16.50;99.90;;;;;;4974358;28;20629;-84
2022/05/11 02:02:08;;;;;;;5.80;3.80;;;16.50;99.90;;;;;;4973016;28;20203;-83
2022/05/11 02:10:05;;;;;;;8.00;3.87;;;16.40;99.90;;;;;;4991629;28;20218;-85
2022/05/11 02:12:33;;;;;;;5.97;4.20;;;16.50;99.90;;;;;;4989091;28;20278;-84
2022/05/11 02:14:59;;;;;;;6.83;4.70;;;16.50;99.90;;;;;;4989009;28;20565;-84
2022/05/11 02:17:26;;;;;;;8.87;4.07;;;16.50;99.90;;;;;;4990144;28;20211;-84
2022/05/11 02:19:53;;;;;;;7.03;3.80;;;16.50;99.90;;;;;;4989382;28;20214;-84
2022/05/11 02:22:20;;;;;;;4.77;3.83;;;16.50;99.90;;;;;;4971388;28;20265;-84
2022/05/11 02:24:47;;;;;;;5.67;3.63;;;16.50;99.90;;;;;;4984695;28;20214;-85
2022/05/11 02:27:14;;;;;;;5.27;4.00;;;16.50;99.90;;;;;;4987806;28;20669;-84
2022/05/11 02:29:41;;;;;;;6.73;4.00;;;16.50;99.90;;;;;;4972144;28;20211;-84
2022/05/11 02:32:08;;;;;;;6.83;4.20;;;16.50;99.90;;;;;;4972983;28;20207;-84
2022/05/11 02:37:43;;;;;;;7.80;4.37;;;16.40;99.90;;;;;;4929811;29;20236;-84
2022/05/11 02:40:13;;;;;;;6.97;4.57;;;16.50;99.90;;;;;;4942430;29;20309;-84
2022/05/11 02:42:40;;;;;;;5.97;3.93;;;16.40;99.90;;;;;;4960716;28;20237;-83
2022/05/11 02:45:08;;;;;;;6.87;3.70;;;16.50;99.90;;;;;;4973895;28;20206;-86
2022/05/11 02:47:38;;;;;;;6.40;4.00;;;16.40;99.90;;;;;;4991033;28;20257;-82
2022/05/11 02:50:06;;;;;;;7.63;4.03;;;16.30;99.90;;;;;;4984516;28;20274;-85
2022/05/11 02:52:34;;;;;;;7.10;4.20;;;16.30;99.90;;;;;;4992827;28;20832;-84
2022/05/11 02:55:01;;;;;;;9.20;4.20;;;16.40;99.90;;;;;;5001982;28;20223;-83
2022/05/11 02:57:28;;;;;;;7.33;4.23;;;16.40;99.90;;;;;;5002341;28;20214;-84
2022/05/11 02:59:57;;;;;;;7.57;3.80;;;16.40;99.90;;;;;;4991742;28;20273;-85
2022/05/11 03:02:24;;;;;;;5.93;3.87;;;16.40;99.90;;;;;;4993992;28;20207;-84
2022/05/11 03:04:51;;;;;;;7.17;4.80;;;16.30;99.90;;;;;;4996287;28;20246;-87
2022/05/11 03:07:19;;;;;;;6.97;4.27;;;16.50;99.90;;;;;;4974893;28;20223;-83
2022/05/11 03:09:46;;;;;;;7.40;4.53;;;16.40;99.90;;;;;;4991232;28;20558;-84
2022/05/11 03:12:13;;;;;;;7.00;4.00;;;16.40;99.90;;;;;;4996662;28;20498;-85
2022/05/11 03:14:41;;;;;;;6.20;4.00;;;16.40;99.90;;;;;;4990371;28;20216;-83
2022/05/11 03:17:08;;;;;;;7.50;4.63;;;16.30;99.90;;;;;;4991256;28;20302;-84
2022/05/11 03:19:35;;;;;;;7.37;4.23;;;16.30;99.90;;;;;;4985970;28;20217;-82
2022/05/11 03:22:02;;;;;;;7.37;4.20;;;16.30;99.90;;;;;;4995688;28;20217;-83
2022/05/11 03:24:29;;;;;;;8.47;4.40;;;16.40;99.90;;;;;;4992583;28;20593;-85
2022/05/11 03:26:56;;;;;;;7.60;4.00;;;16.30;99.90;;;;;;4989645;28;20250;-84
2022/05/11 03:29:23;;;;;;;7.10;4.23;;;16.30;99.90;;;;;;4970118;28;20195;-84
2022/05/11 03:34:38;;;;;;;7.77;4.40;;;16.40;99.90;;;;;;4987787;28;20217;-84
2022/05/11 03:37:11;;;;;;;7.63;4.40;;;16.30;99.90;;;;;;4988891;28;20217;-85
2022/05/11 03:39:38;;;;;;;5.33;4.00;;;16.30;99.90;;;;;;4988761;28;20230;-82
2022/05/11 03:42:16;;;;;;;9.80;4.70;;;16.40;99.90;;;;;;4989537;28;20265;-83
2022/05/11 03:44:43;;;;;;;5.63;4.07;;;16.30;99.90;;;;;;4985754;28;20214;-83
2022/05/11 03:47:11;;;;;;;9.17;4.63;;;16.30;99.90;;;;;;4972041;28;20214;-83
2022/05/11 03:49:38;;;;;;;8.70;4.27;;;16.30;99.90;;;;;;4986203;28;20238;-83
2022/05/11 03:52:05;;;;;;;8.50;4.33;;;16.30;99.90;;;;;;4989618;28;20210;-83
2022/05/11 03:54:37;;;;;;;6.60;4.23;;;16.30;99.90;;;;;;4988467;28;20713;-83
2022/05/11 03:57:04;;;;;;;8.10;5.10;;;16.30;99.90;;;;;;4987481;28;20221;-84
2022/05/11 03:59:31;;;;;;;8.23;4.63;;;16.30;99.90;;;;;;4973377;28;20221;-83
2022/05/11 04:01:58;;;;;;;10.83;4.40;;;16.30;99.90;;;;;;4993049;28;20223;-84
2022/05/11 04:04:25;;;;;;;6.77;4.37;;;16.30;99.90;;;;;;4993183;28;20218;-86
2022/05/11 04:06:52;;;;;;;7.87;4.60;;;16.30;99.90;;;;;;4991181;28;20199;-87
2022/05/11 04:09:19;;;;;;;6.40;3.97;;;16.30;99.90;;;;;;4991156;28;20317;-85
2022/05/11 04:11:46;;;;;;;9.53;3.80;;;16.20;99.90;;;;;;4992613;28;20307;-83
2022/05/11 04:14:13;;;;;;;5.13;3.63;;;16.20;99.90;;;;;;4975383;28;20289;-83
2022/05/11 04:16:40;;;;;;;9.40;4.20;;;16.30;99.90;;;;;;4991772;28;20707;-85
2022/05/11 04:19:07;;;;;;;6.70;3.60;;;16.30;99.90;;;;;;4978598;28;20215;-84
2022/05/11 04:21:34;;;;;;;6.40;3.97;;;16.30;99.90;;;;;;4990562;28;20253;-84
2022/05/11 04:24:01;;;;;;;6.87;3.90;;;16.30;99.90;;;;;;4975507;28;20722;-85
2022/05/11 04:26:30;;;;;;;6.20;3.90;;;16.30;99.90;;;;;;4985035;28;20259;-84
2022/05/11 04:28:57;;;;;;;7.70;3.90;;;16.30;99.90;;;;;;4983808;28;20349;-85
2022/05/11 04:31:24;;;;;;;5.13;3.50;;;16.30;99.90;;;;;;4974826;28;20211;-84
2022/05/11 04:33:51;;;;;;;6.87;3.73;;;16.30;99.90;;;;;;4975273;28;20655;-85
2022/05/11 04:36:18;;;;;;;4.53;3.00;;;16.30;99.90;;;;;;4992637;28;20199;-85
2022/05/11 04:38:45;;;;;;;5.03;3.43;;;16.30;99.90;;;;;;4975209;28;20222;-85
2022/05/11 04:41:12;;;;;;;7.73;3.70;;;16.40;99.90;;;;;;4989667;28;20247;-82
2022/05/11 04:43:39;;;;;;;4.90;3.23;;;16.40;99.90;;;;;;4975444;28;20207;-83
2022/05/11 04:46:06;;;;;;;5.10;3.40;;;16.40;99.90;;;;;;4993126;28;20203;-85
2022/05/11 04:48:33;;;;;;;5.07;3.20;;;16.40;99.90;;;;;;4975174;28;20230;-83
2022/05/11 04:51:01;;;;;;;6.07;3.40;;;16.50;99.90;;;;;;4989503;28;20223;-84
2022/05/11 04:53:30;;;;;;;5.97;3.57;;;16.50;99.90;;;;;;4992570;28;20290;-83
2022/05/11 04:55:57;;;;;;;3.87;3.47;;;16.50;99.90;;;;;;4992277;28;20278;-85
2022/05/11 04:58:24;;;;;;;7.00;3.70;;;16.50;99.90;;;;;;4993468;28;20207;-87
2022/05/11 05:00:54;;;;;;;8.33;3.23;;;16.60;99.90;;;;;;4988107;28;20205;-85
2022/05/11 05:03:21;;;;;;;6.10;3.33;;;16.50;99.90;;;;;;4973657;28;20207;-85
2022/05/11 05:05:48;;;;;;;4.93;3.13;;;16.50;99.90;;;;;;4990318;28;20207;-85
2022/05/11 05:08:16;;;;;;;6.17;3.40;;;16.60;99.90;;;;;;4975236;28;20254;-88
2022/05/11 05:10:43;;;;;;;7.17;3.37;;;16.60;99.90;;;;;;4991044;28;20314;-84
2022/05/11 05:13:11;;;;;;;5.47;3.27;;;16.60;99.90;;;;;;4989948;28;20207;-85
2022/05/11 05:15:42;;;;;;;5.73;3.30;;;16.70;99.90;;;;;;4978598;28;20222;-85
2022/05/11 05:18:10;;;;;;;5.03;3.00;;;16.70;99.90;;;;;;4990661;28;20210;-84
2022/05/11 05:20:38;;;;;;;7.03;2.83;;;16.80;99.90;;;;;;4974056;28;20249;-84
2022/05/11 05:23:05;;;;;;;3.83;2.67;;;16.80;99.90;;;;;;4974439;28;20203;-85
2022/05/11 05:25:32;;;;;;;6.43;3.07;;;16.70;99.90;;;;;;4991482;28;20751;-85
2022/05/11 05:31:04;;;;;;;6.30;3.00;;;16.80;99.90;;;;;;4985737;28;20235;-85
2022/05/11 05:31:04;;;;;;;8.57;2.80;;;16.90;99.90;;;;;;4990683;28;20215;-83
2022/05/11 05:33:38;;;;;;;7.40;3.40;;;16.90;99.90;;;;;;4988797;28;20212;-86
2022/05/11 05:36:06;;;;;;;7.83;2.70;;;17.00;99.90;;;;;;4992161;28;20207;-87
2022/05/11 05:38:36;;;;;;;4.47;2.40;;;17.00;99.90;;;;;;4990400;28;20211;-85
2022/05/11 05:41:05;;;;;;;9.30;2.57;;;17.10;99.90;;;;;;4993584;28;20215;-90
2022/05/11 05:43:32;;;;;;;5.63;2.60;;;17.20;99.90;;;;;;4983562;28;20652;-86
2022/05/11 05:46:00;;;;;;;5.97;2.03;;;17.30;99.90;;;;;;4989849;28;20235;-85
2022/05/11 05:48:27;;;;;;;6.75;2.60;;;17.60;99.90;;;;;;4976329;28;20706;-87
2022/05/11 05:51:09;;;;;;;7.90;2.05;;;17.80;99.90;;;;;;4996922;28;20289;-87
2022/05/11 05:53:36;;;;;;;6.60;2.13;;;18.10;99.90;;;;;;5000082;28;20253;-86
2022/05/11 05:56:04;;;;;;;5.55;1.83;;;18.30;99.90;;;;;;4983127;28;20226;-87
2022/05/11 05:58:31;;;;;;;5.43;2.63;;;18.40;99.90;;;;;;5003301;28;20206;-87
2022/05/11 06:00:58;;;;;;;5.30;1.73;;;18.40;99.90;;;;;;4977485;28;20211;-87
2022/05/11 06:03:32;;;;;;;8.40;1.77;;;18.50;99.90;;;;;;4990059;28;20199;-86
2022/05/11 06:06:07;;;;;;;4.03;1.45;;;18.60;99.90;;;;;;4990864;28;20577;-89
2022/05/11 06:08:36;;;;;;;3.95;1.40;;;18.60;99.90;;;;;;4994191;28;20223;-86
2022/05/11 06:11:06;;;;;;;6.53;1.83;;;18.70;99.90;;;;;;4979905;28;20207;-86
2022/05/11 06:13:34;;;;;;;5.05;2.13;;;19.20;99.90;;;;;;4981706;28;20216;-86
2022/05/11 06:16:07;;;;;;;3.58;1.27;;;20.10;99.90;;;;;;4993945;28;20216;-87
2022/05/11 06:18:36;;;;;;;5.68;1.55;;;20.40;99.90;;;;;;4975699;28;20750;-86
2022/05/11 06:21:03;;;;;;;5.72;1.75;;;20.50;99.90;;;;;;4991094;28;20209;-88
2022/05/11 06:23:30;;;;;;;4.90;1.63;;;20.30;99.90;;;;;;4994105;28;20203;-85
2022/05/11 06:25:57;;;;;;;4.72;1.48;;;19.80;99.90;;;;;;5000472;28;20223;-88
2022/05/11 06:28:24;;;;;;;4.00;1.40;;;19.40;99.90;;;;;;4979734;28;20870;-85
2022/05/11 06:31:23;;;;;;;;;;;;;;;;;;;;;
2022/05/11 06:34:00;;;;;;;2.72;1.00;;;19.20;99.90;;;;;;4993705;28;20275;-90
2022/05/11 06:36:29;;;;;;;3.63;1.00;;;19.80;99.90;;;;;;4978451;28;20215;-86
2022/05/11 06:38:58;;;;;;;3.67;1.10;;;20.90;99.90;;;;;;4994383;28;20218;-86
2022/05/11 06:41:34;;;;;;;5.50;1.20;;;21.10;99.10;;;;;;4995260;28;20308;-87
2022/05/11 06:44:15;;;;;;;3.03;0.98;;;22.00;99.90;;;;;;4994693;28;20218;-86
2022/05/11 06:46:51;;;;;;;3.95;1.02;;;21.60;99.60;;;;;;4990265;28;20508;-87
2022/05/11 06:49:19;;;;;;;3.28;1.10;;;20.50;98.60;;;;;;4990004;28;20577;-87
2022/05/11 06:51:46;;;;;;;5.70;1.13;;;21.20;96.50;;;;;;4974137;28;20206;-85
2022/05/11 06:59:53;;;;;;;4.85;1.00;;;22.90;96.50;;;;;;4990756;28;20215;-87
2022/05/11 07:02:20;;;;;;;2.35;1.08;;;22.00;93.50;;;;;;4972762;28;20580;-86
2022/05/11 07:04:48;;;;;;;4.10;1.17;;;21.90;93.30;;;;;;4972791;28;20215;-86
2022/05/11 07:07:18;;;;;;;5.03;1.35;;;22.00;93.20;;;;;;4981577;28;20196;-88
2022/05/11 07:09:51;;;;;;;4.75;1.02;;;21.80;92.70;;;;;;4977354;28;20235;-86
2022/05/11 07:12:18;;;;;;;1.88;1.00;;;21.70;92.70;;;;;;4992003;28;20203;-87
2022/05/11 07:14:50;;;;;;;4.90;0.82;;;21.80;92.70;;;;;;4993283;28;20208;-87
2022/05/11 07:17:33;;;;;;;1.77;0.98;;;21.80;92.60;;;;;;4990348;28;20207;-85
2022/05/11 07:20:12;;;;;;;4.35;1.10;;;22.00;91.60;;;;;;4996914;28;20218;-87
2022/05/11 07:22:40;;;;;;;5.10;1.05;;;22.20;92.20;;;;;;4980208;28;20563;-87
2022/05/11 07:25:09;;;;;;;4.88;1.15;;;22.60;91.70;;;;;;4980112;28;20219;-87
2022/05/11 07:27:37;;;;;;;5.80;1.08;;;22.80;90.70;;;;;;4996524;28;20257;-89
2022/05/11 07:30:11;;;;;;;4.70;1.27;;;22.30;90.20;;;;;;4982101;28;20219;-86
2022/05/11 07:32:42;;;;;;;4.57;0.85;;;22.80;90.30;;;;;;4977025;28;20203;-87
2022/05/11 07:35:12;;;;;;;3.53;1.00;;;22.50;89.80;;;;;;4975467;28;20284;-87
2022/05/11 07:37:39;;;;;;;3.80;1.20;;;22.40;89.40;;;;;;4991710;28;20203;-87
2022/05/11 07:40:08;;;;;;;3.22;0.82;;;22.00;89.60;;;;;;4991061;28;20215;-87
2022/05/11 07:42:37;;;;;;;4.43;0.95;;;21.40;89.50;;;;;;4988809;28;20258;-86
2022/05/11 07:45:05;;;;;;;3.38;0.77;;;21.80;94.70;;;;;;4974563;28;20611;-87
2022/05/11 07:47:33;;;;;;;11.18;1.08;;;21.60;94.30;;;;;;4976884;28;20199;-85
2022/05/11 07:50:00;;;;;;;2.78;0.88;;;21.00;90.50;;;;;;4974209;28;20298;-87
2022/05/11 07:52:27;;;;;;;2.83;0.80;;;21.10;92.40;;;;;;4990194;28;20206;-87
2022/05/11 07:54:56;;;;;;;2.78;0.80;;;20.80;93.10;;;;;;4978609;28;20243;-88
2022/05/11 08:00:10;;;;;;;4.43;1.00;;;20.00;91.00;;;;;;4991718;28;20195;-87
2022/05/11 08:02:39;;;;;;;2.58;0.80;;;20.40;91.30;;;;;;4989842;28;20207;-86
2022/05/11 08:05:13;;;;;;;3.53;1.02;;;20.90;93.10;;;;;;4992000;28;20578;-87
2022/05/11 08:07:52;;;;;;;3.10;1.00;;;21.00;91.40;;;;;;4990356;28;20204;-87
2022/05/11 08:10:23;;;;;;;5.47;1.20;;;21.50;91.10;;;;;;4991756;28;20226;-88
2022/05/11 08:12:52;;;;;;;3.70;0.93;;;22.10;92.00;;;;;;4992997;28;20230;-85
2022/05/11 08:15:23;;;;;;;5.55;1.20;;;22.90;92.90;;;;;;4990394;28;20210;-86
2022/05/11 08:17:52;;;;;;;2.03;1.00;;;23.50;91.10;;;;;;4994402;28;20203;-89
2022/05/11 08:20:21;;;;;;;2.67;1.02;;;;;;;;;;4992239;28;20215;-87
2022/05/11 08:22:49;;;;;;;4.47;1.10;;;23.80;86.40;;;;;;4992169;28;20207;-87
2022/05/11 08:25:22;;;;;;;5.75;1.08;;;24.00;85.60;;;;;;4976777;28;20215;-88
2022/05/11 08:27:51;;;;;;;5.05;0.90;;;23.90;85.10;;;;;;4998659;28;20210;-86
2022/05/11 08:33:19;;;;;;;2.80;0.90;;;24.60;83.40;;;;;;4993707;28;20301;-87
2022/05/11 08:36:10;;;;;;;3.55;1.10;;;24.90;82.50;;;;;;4985111;28;20238;-86
2022/05/11 08:38:44;;;;;;;4.30;0.82;;;24.80;80.70;;;;;;4997918;28;20207;-87
2022/05/11 08:41:26;;;;;;;2.38;1.10;;;24.60;80.00;;;;;;4977290;28;20592;-87
2022/05/11 08:44:15;;;;;;;4.05;1.00;;;23.90;80.70;;;;;;4994980;28;20210;-87
2022/05/11 08:46:44;;;;;;;5.25;0.98;;;24.10;81.00;;;;;;5000292;28;20290;-87
2022/05/11 08:49:21;;;;;;;4.75;0.90;;;24.20;81.80;;;;;;4996487;28;20295;-86
2022/05/11 08:52:03;;;;;;;5.60;1.02;;;24.00;81.60;;;;;;4999090;28;20207;-87
2022/05/11 08:54:45;;;;;;;5.10;1.20;;;23.70;81.00;;;;;;4999548;28;20691;-88
2022/05/11 08:57:19;;;;;;;4.18;1.58;;;23.30;81.50;;;;;;4981777;28;20203;-87
2022/05/11 08:59:46;;;;;;;5.97;1.13;;;23.00;84.40;;;;;;5000846;28;20726;-86
2022/05/11 09:02:25;;;;;;;4.05;1.23;;;22.30;84.40;;;;;;4986326;28;20207;-89
2022/05/11 09:04:59;;;;;;;3.58;0.90;;;23.30;83.80;;;;;;4999529;28;20199;-88
2022/05/11 09:07:31;;;;;;;3.47;1.10;;;23.10;89.50;;;;;;4986054;28;20227;-87
2022/05/11 09:09:58;;;;;;;3.50;1.10;;;22.80;82.40;;;;;;4995823;28;20231;-88
2022/05/11 09:12:26;;;;;;;4.72;1.13;;;22.60;82.50;;;;;;4995298;28;20218;-86
2022/05/11 09:14:56;;;;;;;5.68;1.08;;;22.60;82.10;;;;;;4976701;28;20218;-88
2022/05/11 09:17:26;;;;;;;5.10;0.80;;;22.70;82.60;;;;;;4977518;28;20214;-89
2022/05/11 09:20:13;;;;;;;3.38;0.88;;;22.70;82.60;;;;;;4975006;28;20217;-88
2022/05/11 09:22:54;;;;;;;4.28;1.30;;;22.80;81.50;;;;;;4974732;28;20620;-88
2022/05/11 09:25:27;;;;;;;3.15;0.85;;;22.70;81.80;;;;;;4990786;28;20222;-89
2022/05/11 09:28:23;;;;;;;4.25;0.98;;;22.80;82.70;;;;;;4979169;28;20199;-89
2022/05/11 09:31:30;;;;;;;4.45;0.90;;;22.90;82.70;;;;;;4976099;28;20270;-86
2022/05/11 09:34:00;;;;;;;4.82;1.00;;;23.00;81.10;;;;;;4960714;28;20225;-87
2022/05/11 09:37:17;;;;;;;4.45;1.00;;;23.30;82.30;;;;;;4989373;28;20200;-85
2022/05/11 09:40:12;;;;;;;3.25;0.85;;;23.10;83.40;;;;;;4990566;28;20688;-86
2022/05/11 09:42:50;;;;;;;3.60;0.98;;;23.30;82.20;;;;;;4973427;28;20229;-87
2022/05/11 09:45:38;;;;;;;2.40;0.70;;;23.60;82.10;;;;;;4974619;28;20206;-86
2022/05/11 09:48:16;;;;;;;3.13;0.95;;;23.80;79.90;;;;;;4990305;28;20222;-87
2022/05/11 09:50:44;;;;;;;4.03;1.30;;;23.60;79.20;;;;;;4992036;28;20238;-87
2022/05/11 09:53:22;;;;;;;3.22;0.90;;;23.90;80.40;;;;;;4992688;28;20195;-87
2022/05/11 09:55:52;;;;;;;3.53;1.10;;;23.50;81.10;;;;;;4987497;28;20237;-86
2022/05/11 09:58:32;;;;;;;4.97;1.00;;;23.60;80.20;;;;;;4989542;28;20203;-87
2022/05/11 10:01:17;;;;;;;5.78;1.30;;;22.80;79.20;;;;;;4988616;28;20207;-87
2022/05/11 10:03:51;;;;;;;2.65;0.90;;;24.20;79.00;;;;;;4974375;28;20651;-86
2022/05/11 10:06:52;;;;;;;3.97;0.88;;;24.60;79.30;;;;;;4976000;28;20235;-86
2022/05/11 10:09:32;;;;;;;4.97;0.82;;;24.80;77.70;;;;;;4992322;28;20585;-86
2022/05/11 10:12:08;;;;;;;4.03;0.80;;;24.80;76.90;;;;;;4976101;28;20318;-84
2022/05/11 10:24:08;;;;;;;2.60;1.00;;;24.60;75.00;;;;;;4971393;28;20317;-85
2022/05/11 10:27:07;;;;;;;3.70;1.17;;;24.50;73.60;;;;;;4995245;28;20221;-85
2022/05/11 10:29:42;;;;;;;3.38;0.82;;;24.20;75.10;;;;;;4990304;28;20314;-86
2022/05/11 10:32:41;;;;;;;3.10;0.80;;;24.00;76.20;;;;;;4973129;28;20213;-86
2022/05/11 10:35:22;;;;;;;4.35;0.70;;;24.10;75.90;;;;;;4945177;28;20199;-87
2022/05/11 10:38:01;;;;;;;4.97;0.93;;;24.00;75.90;;;;;;4994626;28;20303;-85
2022/05/11 10:40:51;;;;;;;2.03;0.60;;;23.90;75.80;;;;;;4999426;28;20218;-86
2022/05/11 10:43:36;;;;;;;6.68;0.90;;;23.90;75.90;;;;;;5002748;28;20211;-89
2022/05/11 10:46:29;;;;;;;4.80;1.10;;;24.30;76.20;;;;;;5003242;28;20287;-86
2022/05/11 10:49:11;;;;;;;3.22;1.15;;;24.40;76.50;;;;;;4987160;28;20203;-87
2022/05/11 10:52:00;;;;;;;6.35;0.70;;;24.30;76.70;;;;;;5005296;28;20229;-87
2022/05/11 10:54:43;;;;;;;3.28;0.88;;;24.20;74.40;;;;;;5002837;28;20203;-88
2022/05/11 10:57:30;;;;;;;3.47;1.00;;;24.20;74.90;;;;;;4990552;28;20230;-88
2022/05/11 10:59:57;;;;;;;2.60;0.65;;;24.30;74.30;;;;;;4977473;28;20223;-88
2022/05/11 11:03:18;;;;;;;3.45;0.75;;;24.40;75.00;;;;;;4992208;28;20222;-88
2022/05/11 11:09:20;;;;;;;10.45;1.55;;;24.20;75.60;;;;;;4989934;28;20238;-88
2022/05/11 11:12:09;;;;;;;2.00;0.70;;;24.00;74.70;;;;;;4987369;28;20722;-87
2022/05/11 11:14:41;;;;;;;2.95;0.90;;;23.90;75.20;;;;;;4986335;28;20351;-90
2022/05/11 11:17:15;;;;;;;3.63;1.00;;;23.90;74.80;;;;;;4987709;28;20212;-86
2022/05/11 11:19:46;;;;;;;3.80;1.08;;;24.00;73.40;;;;;;4983679;28;20212;-88
2022/05/11 11:22:13;;;;;;;4.20;0.98;;;24.20;74.70;;;;;;4973545;28;20659;-89
2022/05/11 11:24:43;;;;;;;2.63;0.93;;;24.30;75.40;;;;;;4986507;28;20286;-87
2022/05/11 11:27:11;;;;;;;4.13;0.95;;;24.40;75.30;;;;;;4988581;28;20215;-83
2022/05/11 11:30:12;;;;;;;2.80;0.90;;;24.20;74.90;;;;;;4989601;28;20350;-90
2022/05/11 11:33:15;;;;;;;4.43;1.55;;;24.30;75.40;;;;;;4990824;28;20601;-87
2022/05/11 11:36:28;;;;;;;3.17;1.20;;;24.50;74.90;;;;;;4990062;28;20693;-88
2022/05/11 11:38:58;;;;;;;5.72;1.02;;;24.50;73.70;;;;;;4988300;28;20204;-88
2022/05/11 11:41:30;;;;;;;3.65;1.13;;;24.50;73.40;;;;;;4975469;28;20227;-87
2022/05/11 11:43:58;;;;;;;4.13;0.90;;;24.80;72.00;;;;;;4974729;28;20261;-89
2022/05/11 11:46:41;;;;;;;3.30;1.10;;;24.90;70.90;;;;;;4976907;28;20328;-87
2022/05/11 11:49:21;;;;;;;7.35;1.10;;;25.10;70.20;;;;;;4972375;28;20735;-88
2022/05/11 11:51:54;;;;;;;5.85;1.25;;;24.90;71.70;;;;;;4990924;28;20205;-88
2022/05/11 11:54:38;;;;;;;3.17;0.90;;;24.70;70.80;;;;;;4981661;28;20210;-88
2022/05/11 11:57:06;;;;;;;3.05;1.13;;;24.60;69.30;;;;;;4990365;28;20270;-83
2022/05/11 11:59:39;;;;;;;3.08;0.88;;;24.50;70.10;;;;;;4992146;28;20229;-87
2022/05/11 12:02:40;;;;;;;5.57;1.20;;;24.50;70.90;;;;;;4988669;28;20202;-88
2022/05/11 12:05:42;;;;;;;3.42;1.00;;;24.60;71.30;;;;;;4974712;28;20207;-87
2022/05/11 12:17:00;;;;;;;4.65;1.27;;;24.80;68.10;;;;;;4999049;28;20203;-88
2022/05/11 12:19:34;;;;;;;7.22;1.42;;;24.80;66.60;;;;;;4992586;28;20218;-87
2022/05/11 12:22:13;;;;;;;4.57;1.08;;;24.60;67.50;;;;;;4995386;28;20210;-88
2022/05/11 12:24:48;;;;;;;3.40;0.90;;;24.90;66.50;;;;;;4975980;28;20235;-88
2022/05/11 12:27:26;;;;;;;4.70;1.20;;;25.00;66.20;;;;;;4977596;28;20194;-86
2022/05/11 12:29:56;;;;;;;6.15;1.20;;;25.00;66.60;;;;;;4975476;28;20241;-88
2022/05/11 12:32:30;;;;;;;6.80;1.40;;;24.90;66.70;;;;;;4976269;28;20207;-85
2022/05/11 12:35:06;;;;;;;2.67;1.40;;;24.80;65.60;;;;;;4973429;28;20323;-87
2022/05/11 12:37:36;;;;;;;4.55;1.00;;;24.70;65.90;;;;;;4990042;28;20215;-86
2022/05/11 12:40:09;;;;;;;5.90;1.45;;;24.70;66.70;;;;;;4990744;28;20219;-86
2022/05/11 12:42:44;;;;;;;2.83;1.10;;;24.90;66.70;;;;;;4971877;28;20200;-87
2022/05/11 12:45:19;;;;;;;4.05;1.15;;;24.90;67.30;;;;;;4975992;28;20215;-86
2022/05/11 12:47:53;;;;;;;5.57;1.30;;;25.00;66.50;;;;;;4992198;28;20912;-87
2022/05/11 12:50:28;;;;;;;2.35;1.00;;;24.90;67.00;;;;;;4994968;28;20242;-90
2022/05/11 12:53:03;;;;;;;4.05;1.45;;;24.90;67.10;;;;;;4982671;28;20202;-90
2022/05/11 12:55:33;;;;;;;3.55;1.83;;;25.10;67.80;;;;;;4983899;28;20666;-91
2022/05/11 12:58:03;;;;;;;3.60;1.10;;;25.20;68.20;;;;;;4984810;28;20203;-90
2022/05/11 13:00:31;;;;;;;5.82;1.38;;;25.30;68.00;;;;;;4983923;28;20620;-90
2022/05/11 13:02:58;;;;;;;2.75;1.20;;;25.40;68.40;;;;;;5001888;28;20234;-90
2022/05/11 13:05:34;;;;;;;4.65;1.13;;;25.50;68.80;;;;;;4992935;28;20270;-89
2022/05/11 13:08:04;;;;;;;6.10;1.77;;;25.70;69.10;;;;;;5014377;28;20191;-91
2022/05/11 13:10:43;;;;;;;3.88;1.38;;;25.80;68.60;;;;;;5013781;28;20265;-89
2022/05/11 13:13:25;;;;;;;4.30;1.50;;;26.00;68.80;;;;;;4995910;28;20233;-90
2022/05/11 13:16:03;;;;;;;5.45;1.65;;;26.20;69.50;;;;;;5012157;28;20218;-89
2022/05/11 13:18:35;;;;;;;4.63;1.33;;;26.20;69.00;;;;;;4998069;28;20211;-91
2022/05/11 13:21:08;;;;;;;4.72;1.50;;;26.20;69.40;;;;;;4996545;28;20195;-92
2022/05/11 13:23:41;;;;;;;3.85;1.50;;;26.10;69.40;;;;;;5015630;28;20203;-89
2022/05/11 13:26:35;;;;;;;6.47;1.77;;;26.00;70.00;;;;;;4989036;28;20211;-89
2022/05/11 13:29:24;;;;;;;2.25;1.20;;;26.00;70.70;;;;;;5005320;28;20215;-89
2022/05/11 13:32:07;;;;;;;4.70;1.60;;;25.90;70.50;;;;;;5009149;28;20231;-91
2022/05/11 13:34:39;;;;;;;8.43;1.60;;;25.90;70.20;;;;;;5002568;28;20228;-89
2022/05/11 13:37:30;;;;;;;9.07;1.45;;;26.00;70.60;;;;;;5005724;28;20211;-90
2022/05/11 13:39:57;;;;;;;7.38;2.38;;;26.00;70.20;;;;;;4982481;28;20246;-92
2022/05/11 13:42:28;;;;;;;4.35;1.60;;;26.00;70.90;;;;;;4999145;28;20674;-92
2022/05/11 13:45:04;;;;;;;3.45;1.52;;;26.00;71.20;;;;;;4980807;28;20211;-89
2022/05/11 13:50:36;;;;;;;5.10;1.73;;;26.00;71.00;;;;;;5005416;28;20270;-90
2022/05/11 13:53:33;;;;;;;3.72;1.80;;;26.00;71.80;;;;;;4995092;28;20606;-89
2022/05/11 13:56:09;;;;;;;4.20;1.58;;;25.90;71.70;;;;;;4992695;28;20223;-90
2022/05/11 13:58:43;;;;;;;5.75;1.85;;;25.70;71.90;;;;;;4993451;28;20211;-90
2022/05/11 14:01:22;;;;;;;5.40;2.60;;;25.80;72.50;;;;;;4986122;28;20250;-90
2022/05/11 14:03:59;;;;;;;6.43;2.30;;;25.90;72.40;;;;;;4997907;28;20203;-90
2022/05/11 14:06:30;;;;;;;6.40;1.77;;;25.90;72.50;;;;;;4977551;28;20214;-90
2022/05/11 14:08:59;;;;;;;5.68;1.95;;;26.00;72.30;;;;;;4979981;28;20219;-89